Flag for Australia

Past Weather in Penrith, New South Wales, Australia — Yesterday and Last 2 Weeks

Currently: 86 °F. Sunny. (Weather station: Richmond Aus-Afb, Australia). See more current weather

Past Weather in Penrith — Graph

°F

Penrith Temperature Yesterday

Maximum temperature yesterday: 82 °F (at 3:30 pm)
Minimum temperature yesterday: 52 °F (at 6:00 am)
Average temperature yesterday: 68 °F

High & Low Weather Summary for the Past Weeks

 TemperatureHumidityPressure
High100 °F (Jan 14, 3:30 pm)100% (Jan 3, 11:00 pm)30.24 "Hg (Jan 3, 11:00 pm)
Low52 °F (Jan 17, 6:00 am)13% (Jan 16, 4:00 pm)29.50 "Hg (Jan 15, 4:30 pm)
Average72 °F72%29.93 "Hg
* Reported Jan 3 2:00 pm — Jan 18 2:00 pm, Penrith. Weather by CustomWeather, © 2021

Note: Actual official high and low records may vary slightly from our data, if they occured in-between our weather recording intervals... More about our weather records

Penrith Weather History for the Previous 24 Hours

Scroll right to see more
 ConditionsComfort  
Time TempWeatherWind HumidityBarometerVisibility
2:00 pm
Mon, Jan 18
84 °FSunny.6 mph40%29.83 "HgN/A
1:30 pm84 °FSunny.8 mph40%29.86 "HgN/A
1:00 pm84 °FSunny.8 mph45%29.86 "HgN/A
12:30 pm82 °FSunny.6 mph42%29.89 "HgN/A
12:00 pm82 °FSunny.9 mph42%29.89 "HgN/A
11:30 am82 °FSunny.6 mph48%29.92 "HgN/A
10:30 am77 °FSunny.9 mph57%29.92 "HgN/A
10:00 am77 °FSunny.8 mph61%29.95 "HgN/A
9:30 am75 °FSunny.7 mph65%29.95 "HgN/A
9:00 am72 °FSunny.6 mph69%29.98 "HgN/A
8:30 am70 °FSunny.5 mph73%29.98 "HgN/A
8:00 am68 °FSunny.6 mph83%29.98 "HgN/A
7:30 am66 °FSunny.3 mph88%29.95 "HgN/A
7:00 am64 °FSunny.2 mph94%29.95 "HgN/A
6:30 am63 °FSunny.No wind94%29.95 "HgN/A
6:00 am63 °FClear.No wind94%29.95 "HgN/A
5:30 am61 °FClear.No wind94%29.95 "HgN/A
5:00 am63 °FClear.No wind88%29.95 "HgN/A
4:30 am64 °FPartly cloudy.No wind88%29.95 "HgN/A
4:00 am64 °FPartly cloudy.5 mph83%29.95 "HgN/A
3:30 am66 °FPassing clouds.No wind83%29.95 "HgN/A
3:00 am66 °FPassing clouds.No wind83%29.95 "HgN/A
2:30 am66 °FPassing clouds.3 mph83%29.98 "HgN/A
2:00 am68 °FPassing clouds.5 mph78%29.98 "HgN/A
1:30 am68 °FMostly cloudy.5 mph78%29.98 "HgN/A
1:00 am70 °FOvercast.3 mph73%29.98 "HgN/A
12:30 am70 °FMostly cloudy.No wind73%29.98 "HgN/A
12:00 am70 °FOvercast.3 mph69%29.98 "HgN/A
11:30 pm
Sun, Jan 17
70 °FOvercast.5 mph69%29.98 "HgN/A
11:00 pm70 °FMostly cloudy.6 mph69%29.98 "HgN/A
10:30 pm70 °FOvercast.9 mph69%30.01 "HgN/A
10:00 pm70 °FOvercast.9 mph69%29.98 "HgN/A
9:30 pm68 °FClear.8 mph73%29.98 "HgN/A
9:00 pm68 °FPassing clouds.6 mph73%29.98 "HgN/A
8:30 pm70 °FPassing clouds.7 mph69%29.98 "HgN/A
8:00 pm72 °FScattered clouds.7 mph65%29.95 "HgN/A
7:30 pm73 °FSunny.10 mph61%29.92 "HgN/A
7:00 pm73 °FSunny.10 mph61%29.92 "HgN/A
6:30 pm75 °FSunny.14 mph54%29.89 "HgN/A
6:00 pm77 °FSunny.12 mph54%29.89 "HgN/A
5:30 pm79 °FSunny.13 mph48%29.89 "HgN/A
5:00 pm79 °FSunny.17 mph51%29.89 "HgN/A
4:30 pm81 °FSunny.14 mph48%29.89 "HgN/A
4:00 pm82 °FSunny.9 mph42%29.89 "HgN/A
3:30 pm82 °FSunny.6 mph30%29.89 "HgN/A
3:00 pm81 °FSunny.6 mph30%29.89 "HgN/A
Weather by CustomWeather, © 2021

See weather overview